This is the latest recevied weather packets stored in our database for station/object W9PEM-13. If no packets are shown the sender has not sent any weather packets the latest 10 day(s).
| Time | Temp. | Humidity | Pressure | Rain* | Wind** | Luminosity | Snow |
|---|---|---|---|---|---|---|---|
| 1787418737 | 23.89° C | 71% | 1013.8 hPa | 0 mm | - | 760 W/m² | - |
| 1787418380 | 23.89° C | 71% | 1013.8 hPa | 0 mm | - | 760 W/m² | - |
| 1787418054 | 23.33° C | 73% | 1013.7 hPa | 0 mm | - | 1009 W/m² | - |
| 1787418020 | 23.33° C | 73% | 1013.7 hPa | 0 mm | - | 1009 W/m² | - |
| 1787417780 | 23.33° C | 73% | 1013.7 hPa | 0 mm | - | 1009 W/m² | - |
| 1787417564 | 23.33° C | 70% | 1013.8 hPa | 0 mm | - | 773 W/m² | - |
| 1787417179 | 23.33° C | 70% | 1013.8 hPa | 0 mm | - | 773 W/m² | - |
| 1787416890 | 23.33° C | 70% | 1013.7 hPa | 0 mm | - | 883 W/m² | - |
| 1787416840 | 23.33° C | 70% | 1013.7 hPa | 0 mm | - | 883 W/m² | - |
| 1787416579 | 23.33° C | 70% | 1013.7 hPa | 0 mm | - | 883 W/m² | - |
| 1787416246 | 22.78° C | 69% | 1013.6 hPa | 0 mm | - | 670 W/m² | - |
| 1787415681 | 22.78° C | 68% | 1013.7 hPa | 0 mm | - | 793 W/m² | - |
| 1787415047 | 22.78° C | 66% | 1013.8 hPa | 0 mm | - | 690 W/m² | - |
| 1787414473 | 22.22° C | 67% | 1013.8 hPa | 0 mm | - | 668 W/m² | - |
| 1787413816 | 22.22° C | 67% | 1013.8 hPa | 0 mm | - | 394 W/m² | - |
| 1787413576 | 22.22° C | 67% | 1013.8 hPa | 0 mm | - | 394 W/m² | - |
| 1787413252 | 22.22° C | 67% | 1013.7 hPa | 0 mm | - | 311 W/m² | - |
| 1787412976 | 22.22° C | 67% | 1013.7 hPa | 0 mm | - | 311 W/m² | - |
| 1787412564 | 22.22° C | 67% | 1013.6 hPa | 0 mm | - | 193 W/m² | - |
| 1787412382 | 21.67° C | 65% | 1013.6 hPa | 0 mm | - | 465 W/m² | - |
| 1787411775 | 21.67° C | 65% | 1013.6 hPa | 0 mm | - | 465 W/m² | - |
| 1787411535 | 22.22° C | 67% | 1013.4 hPa | 0 mm | - | 298 W/m² | - |
| 1787411174 | 22.22° C | 67% | 1013.4 hPa | 0 mm | - | 298 W/m² | - |
| 1787410741 | 21.67° C | 68% | 1013.3 hPa | 0 mm | - | 475 W/m² | - |
| 1787410574 | 21.67° C | 68% | 1013.3 hPa | 0 mm | - | 475 W/m² | - |
* Rain latest hour (hover to see other rain measurements)
** Current wind speed in m/s (hover to see current wind gust speed)